Time;durP1;ratioP1;P1;durP2;ratioP2;P2;SDS_P1;SDS_P2;PMS_P1;PMS_P2;Temp;Humidity;BMP_temperature;BMP_pressure;BME280_temperature;BME280_humidity;BME280_pressure;Samples;Min_cycle;Max_cycle;Signal;HPM_P1;HPM_P2
2022/08/18 00:02:25;;;;;;;2.78;2.33;;;;;;;22.19;54.82;100689.94;5148310;28;20026;-82
2022/08/18 00:04:57;;;;;;;1.23;1.13;;;;;;;22.17;54.33;100695.44;5139063;28;20038;-83
2022/08/18 00:07:33;;;;;;;1.75;1.48;;;;;;;22.15;55.26;100695.53;5132273;28;20042;-82
2022/08/18 00:10:05;;;;;;;3.90;2.53;;;;;;;22.12;54.06;100694.91;5142813;28;20042;-81
2022/08/18 00:12:42;;;;;;;2.38;2.17;;;;;;;22.10;54.20;100700.38;5126859;28;20038;-81
2022/08/18 00:15:17;;;;;;;8.27;2.42;;;;;;;22.09;54.04;100706.69;5122152;28;20130;-82
2022/08/18 00:17:48;;;;;;;2.20;1.77;;;;;;;22.09;55.52;100703.19;5124606;28;20038;-82
2022/08/18 00:20:22;;;;;;;3.17;2.25;;;;;;;22.05;54.64;100709.69;5131539;28;20098;-81
2022/08/18 00:22:55;;;;;;;2.88;2.67;;;;;;;22.01;55.65;100717.97;5138536;28;20045;-83
2022/08/18 00:25:26;;;;;;;2.85;2.55;;;;;;;22.00;55.20;100710.91;5162278;28;20050;-81
2022/08/18 00:27:59;;;;;;;2.53;2.13;;;;;;;22.00;54.63;100707.38;5165488;28;20054;-80
2022/08/18 00:30:47;;;;;;;2.92;2.30;;;;;;;22.00;54.64;100712.72;5157711;28;20046;-79
2022/08/18 00:33:21;;;;;;;2.35;1.83;;;;;;;22.00;55.31;100705.56;5174615;28;20018;-80
2022/08/18 00:35:52;;;;;;;2.30;2.08;;;;;;;21.96;54.92;100693.41;5171902;28;20042;-78
2022/08/18 00:38:23;;;;;;;2.90;2.17;;;;;;;21.97;54.84;100695.13;5157462;28;20243;-79
2022/08/18 00:40:54;;;;;;;4.95;3.00;;;;;;;21.92;54.98;100699.97;5153504;28;20042;-79
2022/08/18 00:43:30;;;;;;;2.47;1.70;;;;;;;21.90;55.32;100696.56;5133315;28;20498;-79
2022/08/18 00:46:01;;;;;;;2.33;2.15;;;;;;;21.97;54.72;100697.78;5115167;28;20046;-79
2022/08/18 00:48:32;;;;;;;8.90;2.72;;;;;;;21.98;54.49;100694.16;5131172;28;20027;-79
2022/08/18 00:51:14;;;;;;;2.85;2.65;;;;;;;21.89;55.99;100689.50;5114453;28;20404;-79
2022/08/18 00:53:59;;;;;;;3.70;2.30;;;;;;;21.85;55.24;100688.03;5147174;28;20033;-79
2022/08/18 00:56:36;;;;;;;13.32;4.53;;;;;;;21.84;55.27;100697.03;5104636;28;20057;-79
2022/08/18 00:59:16;;;;;;;2.85;2.00;;;;;;;21.79;55.01;100686.69;5122853;28;20034;-80
2022/08/18 01:01:50;;;;;;;1.73;1.63;;;;;;;21.75;55.53;100692.38;5144752;28;20037;-79
2022/08/18 01:04:32;;;;;;;2.95;2.25;;;;;;;21.71;56.22;100686.41;5145182;28;20034;-79
2022/08/18 01:07:20;;;;;;;18.65;3.63;;;;;;;21.71;54.77;100686.41;5133926;28;20032;-79
2022/08/18 01:09:51;;;;;;;2.70;2.50;;;;;;;21.66;56.20;100689.41;5121275;28;20100;-80
2022/08/18 01:12:22;;;;;;;11.95;2.95;;;;;;;21.62;56.41;100677.25;5143886;28;20047;-82
2022/08/18 01:14:53;;;;;;;2.92;2.70;;;;;;;21.59;56.07;100685.50;5127838;28;20042;-81
2022/08/18 01:23:20;;;;;;;3.40;2.90;;;;;;;21.51;57.11;100688.69;5163637;28;20038;-81
2022/08/18 01:26:05;;;;;;;3.70;2.38;;;;;;;21.49;55.90;100689.78;5133676;28;20133;-81
2022/08/18 01:28:41;;;;;;;3.13;2.47;;;;;;;21.47;55.83;100689.03;5120394;28;20045;-80
2022/08/18 01:31:27;;;;;;;;;;;;;;;21.42;56.64;100691.19;5123220;28;20043;-81
2022/08/18 01:33:59;;;;;;;4.90;2.60;;;;;;;21.42;56.18;100699.22;5149911;28;19925;-80
2022/08/18 01:36:36;;;;;;;2.90;2.70;;;;;;;21.44;56.34;100694.63;5142885;28;20042;-80
2022/08/18 01:39:11;;;;;;;6.78;4.47;;;;;;;21.45;56.09;100698.97;5109525;28;20038;-81
2022/08/18 01:41:45;;;;;;;5.20;3.20;;;;;;;21.41;56.64;100695.66;5142800;28;20030;-80
2022/08/18 01:44:15;;;;;;;5.40;2.97;;;;;;;21.42;57.42;100700.03;5160330;28;20074;-81
2022/08/18 01:46:46;;;;;;;5.47;3.22;;;;;;;21.44;56.68;100710.63;5127553;28;20058;-80
2022/08/18 01:49:17;;;;;;;3.58;2.72;;;;;;;21.41;57.61;100708.19;5124977;28;20291;-81
2022/08/18 01:51:48;;;;;;;5.90;3.95;;;;;;;21.39;59.05;100716.31;5129536;28;20899;-80
2022/08/18 01:54:19;;;;;;;9.55;5.93;;;;;;;21.39;57.31;100717.13;5144516;28;20046;-80
2022/08/18 01:56:51;;;;;;;8.00;5.25;;;;;;;21.32;60.90;100723.06;5131554;28;20030;-81
2022/08/18 01:59:21;;;;;;;5.10;4.60;;;;;;;21.37;58.66;100716.38;5127500;28;20376;-80
2022/08/18 02:01:54;;;;;;;4.22;3.83;;;;;;;21.43;59.30;100722.25;5139377;28;20033;-81
2022/08/18 02:04:32;;;;;;;3.42;3.03;;;;;;;21.38;58.12;100722.59;5139400;28;20550;-81
2022/08/18 02:07:07;;;;;;;5.47;3.00;;;;;;;21.40;58.17;100723.34;5143796;28;20568;-81
2022/08/18 02:09:42;;;;;;;4.45;3.22;;;;;;;21.39;58.49;100730.50;5136513;28;20082;-80
2022/08/18 02:12:13;;;;;;;2.40;2.15;;;;;;;21.39;59.37;100725.16;5127939;28;20117;-81
2022/08/18 02:14:44;;;;;;;3.35;2.85;;;;;;;21.42;60.96;100715.22;5138067;28;20082;-81
2022/08/18 02:17:14;;;;;;;4.85;4.30;;;;;;;21.37;60.02;100715.56;5147471;28;20076;-81
2022/08/18 02:19:46;;;;;;;5.65;3.30;;;;;;;21.35;59.96;100710.34;5144684;28;20112;-81
2022/08/18 02:22:20;;;;;;;2.63;2.25;;;;;;;21.30;61.56;100717.81;5140389;28;20511;-81
2022/08/18 02:24:51;;;;;;;2.97;2.75;;;;;;;21.31;60.64;100705.34;5139220;28;20204;-81
2022/08/18 02:27:24;;;;;;;4.43;2.83;;;;;;;21.30;59.24;100692.94;5151475;28;20042;-81
2022/08/18 02:29:58;;;;;;;5.00;3.72;;;;;;;21.26;60.00;100695.00;5134563;28;20035;-81
2022/08/18 02:32:29;;;;;;;4.60;3.88;;;;;;;21.27;60.31;100686.03;5127245;28;20559;-81
2022/08/18 02:35:05;;;;;;;4.97;3.40;;;;;;;21.29;59.28;100684.06;5151840;28;20046;-81
2022/08/18 02:37:56;;;;;;;7.55;5.18;;;;;;;21.26;59.88;100675.44;5124675;28;20046;-80
2022/08/18 02:40:27;;;;;;;2.22;2.13;;;;;;;21.21;59.14;100681.13;5143335;28;20046;-80
2022/08/18 02:42:57;;;;;;;5.88;3.10;;;;;;;21.22;59.64;100683.69;5145546;28;20034;-81
2022/08/18 02:45:28;;;;;;;6.75;3.03;;;;;;;21.22;59.83;100677.50;5119986;28;20048;-81
2022/08/18 02:47:59;;;;;;;3.47;2.45;;;;;;;21.19;59.15;100675.91;5153216;28;20022;-81
2022/08/18 02:50:48;;;;;;;3.72;3.40;;;;;;;21.18;59.11;100682.19;5129443;28;20047;-80
2022/08/18 02:53:22;;;;;;;6.13;4.63;;;;;;;21.19;62.05;100685.75;5161159;28;20045;-80
2022/08/18 02:55:54;;;;;;;4.15;3.78;;;;;;;21.17;59.08;100685.00;5135537;28;20046;-80
2022/08/18 02:58:25;;;;;;;3.90;3.60;;;;;;;21.15;59.78;100684.25;5173523;28;20073;-81
2022/08/18 03:01:18;;;;;;;4.45;3.85;;;;;;;21.13;60.65;100675.47;5134098;28;20026;-81
2022/08/18 03:04:26;;;;;;;;;;;;;;;;;;;;;
2022/08/18 03:10:55;;;;;;;4.60;4.20;;;;;;;21.09;60.22;100679.34;5094749;28;20039;-81
2022/08/18 03:13:28;;;;;;;4.63;3.53;;;;;;;21.06;61.59;100673.28;5125604;28;20053;-81
2022/08/18 03:15:58;;;;;;;5.25;4.70;;;;;;;21.09;59.18;100674.84;5117803;28;20039;-81
2022/08/18 03:18:40;;;;;;;8.07;3.78;;;;;;;21.09;59.38;100682.03;5111483;28;20578;-81
2022/08/18 03:21:15;;;;;;;7.93;4.47;;;;;;;21.09;60.62;100685.53;5141669;28;20046;-81
2022/08/18 03:23:45;;;;;;;14.27;4.88;;;;;;;21.09;59.62;100684.69;5143207;28;20575;-81
2022/08/18 03:26:18;;;;;;;6.55;5.57;;;;;;;21.13;60.22;100696.81;5137872;28;20044;-81
2022/08/18 03:28:51;;;;;;;3.88;2.70;;;;;;;21.11;60.33;100685.44;5126838;28;20094;-81
2022/08/18 03:31:24;;;;;;;7.22;3.97;;;;;;;21.05;61.19;100682.22;5117928;28;20046;-81
2022/08/18 03:33:57;;;;;;;3.92;3.58;;;;;;;21.05;60.92;100679.56;5156737;28;20650;-81
2022/08/18 03:36:33;;;;;;;4.55;3.80;;;;;;;21.11;61.54;100690.78;5139327;28;20037;-81
2022/08/18 03:39:09;;;;;;;5.25;4.85;;;;;;;21.03;60.48;100681.47;5124150;28;20093;-81
2022/08/18 03:41:45;;;;;;;5.20;3.08;;;;;;;21.01;60.73;100688.75;5125507;28;20046;-80
2022/08/18 03:44:16;;;;;;;3.17;2.92;;;;;;;20.97;62.02;100697.09;5143387;28;20081;-81
2022/08/18 03:46:47;;;;;;;3.42;3.13;;;;;;;21.05;60.32;100697.41;5140717;28;20085;-81
2022/08/18 03:49:19;;;;;;;3.13;2.70;;;;;;;21.01;61.92;100696.75;5120221;28;20086;-81
2022/08/18 03:51:50;;;;;;;6.13;3.50;;;;;;;21.00;61.09;100696.84;5165767;28;20037;-81
2022/08/18 03:54:24;;;;;;;3.45;2.80;;;;;;;21.01;59.93;100694.09;5144106;28;20278;-82
2022/08/18 03:56:54;;;;;;;2.72;2.50;;;;;;;21.02;60.54;100695.81;5124078;28;20451;-81
2022/08/18 03:59:26;;;;;;;4.70;3.70;;;;;;;20.99;61.06;100697.84;5133220;28;20043;-81
2022/08/18 04:01:56;;;;;;;3.10;2.88;;;;;;;21.00;60.17;100695.06;5126910;28;20046;-81
2022/08/18 04:04:30;;;;;;;4.00;3.22;;;;;;;21.03;59.85;100700.16;5125928;28;21297;-81
2022/08/18 04:07:16;;;;;;;3.15;2.85;;;;;;;21.01;60.20;100683.44;5161997;28;20415;-81
2022/08/18 04:09:46;;;;;;;4.28;3.60;;;;;;;21.04;60.18;100683.19;5144628;28;20062;-81
2022/08/18 04:12:20;;;;;;;2.75;2.55;;;;;;;20.99;61.07;100687.19;5163233;28;20033;-81
2022/08/18 04:14:53;;;;;;;3.58;2.85;;;;;;;20.99;60.03;100700.50;5126881;28;20136;-80
2022/08/18 04:17:24;;;;;;;3.90;2.60;;;;;;;20.98;59.94;100704.13;5157741;28;20035;-80
2022/08/18 04:19:55;;;;;;;5.53;3.15;;;;;;;20.98;61.43;100699.63;5110333;28;20034;-80
2022/08/18 04:22:26;;;;;;;6.57;3.58;;;;;;;21.00;60.02;100703.06;5144863;28;20497;-80
2022/08/18 04:24:57;;;;;;;2.92;2.63;;;;;;;20.99;59.80;100690.69;5142185;28;20053;-80
2022/08/18 04:27:30;;;;;;;2.33;2.13;;;;;;;20.99;59.83;100695.19;5144337;28;20038;-82
2022/08/18 04:30:11;;;;;;;3.63;3.33;;;;;;;21.01;62.47;100688.75;5156560;28;20133;-81
2022/08/18 04:32:42;;;;;;;3.10;2.70;;;;;;;21.00;61.53;100687.06;5131843;28;20071;-80
2022/08/18 04:35:13;;;;;;;3.85;3.10;;;;;;;20.94;63.58;100683.97;5144384;28;20624;-80
2022/08/18 04:37:46;;;;;;;3.22;2.70;;;;;;;20.95;62.15;100694.50;5149768;28;20053;-80
2022/08/18 04:40:16;;;;;;;9.60;3.40;;;;;;;20.99;61.37;100698.69;5120750;28;20127;-80
2022/08/18 04:42:47;;;;;;;5.68;3.22;;;;;;;21.06;62.96;100697.28;5127990;28;20465;-80
2022/08/18 04:45:17;;;;;;;4.13;3.72;;;;;;;21.01;63.68;100704.75;5157741;28;20039;-80
2022/08/18 04:47:48;;;;;;;2.58;2.38;;;;;;;20.96;64.53;100701.56;5151242;28;20030;-80
2022/08/18 04:50:19;;;;;;;3.83;3.35;;;;;;;20.99;63.10;100709.34;5160596;28;20058;-80
2022/08/18 04:55:48;;;;;;;2.42;2.08;;;;;;;20.91;61.80;100709.88;5136784;28;20635;-80
2022/08/18 04:58:23;;;;;;;7.68;4.07;;;;;;;20.88;61.94;100717.25;5120907;28;20041;-81
2022/08/18 05:00:59;;;;;;;3.87;3.47;;;;;;;20.84;62.10;100719.28;5166400;28;20231;-79
2022/08/18 05:03:29;;;;;;;4.07;2.88;;;;;;;20.89;63.35;100710.97;5148555;28;20030;-80
2022/08/18 05:06:06;;;;;;;18.92;4.03;;;;;;;20.88;61.68;100714.59;5153370;28;20098;-80
2022/08/18 05:08:37;;;;;;;5.57;3.95;;;;;;;20.84;61.94;100716.63;5137270;28;20022;-80
2022/08/18 05:11:11;;;;;;;4.75;3.72;;;;;;;20.85;65.09;100718.31;5137189;28;20164;-80
2022/08/18 05:13:42;;;;;;;2.58;2.38;;;;;;;20.86;62.35;100721.88;5153781;28;20103;-79
2022/08/18 05:16:13;;;;;;;3.30;3.00;;;;;;;20.86;63.16;100722.69;5169801;28;20039;-80
2022/08/18 05:18:43;;;;;;;19.05;3.03;;;;;;;20.75;63.74;100720.78;5133188;28;20098;-80
2022/08/18 05:21:14;;;;;;;4.63;4.22;;;;;;;20.82;64.87;100721.22;5147298;28;20055;-80
2022/08/18 05:23:47;;;;;;;6.93;4.68;;;;;;;20.82;63.22;100720.34;5147239;28;20034;-80
2022/08/18 05:26:18;;;;;;;13.57;5.35;;;;;;;20.86;64.46;100730.69;5139165;28;20605;-80
2022/08/18 05:28:49;;;;;;;3.65;3.35;;;;;;;20.78;64.40;100729.53;5120151;28;20027;-80
2022/08/18 05:31:23;;;;;;;3.58;3.28;;;;;;;20.82;62.98;100733.69;5122289;28;20036;-80
2022/08/18 05:33:55;;;;;;;2.67;2.42;;;;;;;20.78;64.65;100733.06;5131777;28;20064;-80
2022/08/18 05:36:45;;;;;;;8.77;4.22;;;;;;;20.78;64.46;100734.88;5131833;28;20038;-80
2022/08/18 05:39:34;;;;;;;6.72;3.22;;;;;;;20.76;64.33;100729.63;5144922;28;20034;-79
2022/08/18 05:42:16;;;;;;;3.33;2.03;;;;;;;20.72;65.65;100728.97;5168848;28;20030;-79
2022/08/18 05:44:49;;;;;;;5.97;3.90;;;;;;;20.81;65.43;100734.66;5132162;28;20053;-80
2022/08/18 05:47:30;;;;;;;3.78;2.17;;;;;;;20.75;66.51;100741.25;5169273;28;20193;-79
2022/08/18 05:50:10;;;;;;;3.08;2.50;;;;;;;20.78;64.57;100754.38;5156322;28;20045;-79
2022/08/18 05:52:59;;;;;;;5.45;4.15;;;;;;;20.89;64.42;100742.97;5155124;28;20039;-79
2022/08/18 05:58:50;;;;;;;8.00;3.70;;;;;;;20.91;64.65;100751.72;5157571;28;20026;-80
2022/08/18 06:01:37;;;;;;;3.17;2.97;;;;;;;20.85;64.33;100753.00;5147878;28;20465;-80
2022/08/18 06:04:24;;;;;;;23.20;4.82;;;;;;;20.93;63.78;100752.47;5128882;28;20031;-80
2022/08/18 06:06:58;;;;;;;3.50;3.20;;;;;;;20.79;67.18;100763.22;5126491;28;20037;-80
2022/08/18 06:09:39;;;;;;;3.30;2.78;;;;;;;20.79;67.59;100763.22;5149710;28;20066;-80
2022/08/18 06:12:21;;;;;;;3.63;2.85;;;;;;;20.79;66.68;100768.56;5137153;28;20027;-80
2022/08/18 06:15:00;;;;;;;2.78;2.10;;;;;;;20.81;65.72;100771.97;5123038;28;20026;-80
2022/08/18 06:17:41;;;;;;;1.48;1.38;;;;;;;20.75;66.48;100758.13;5120742;28;20108;-80
2022/08/18 06:20:18;;;;;;;3.22;2.92;;;;;;;20.78;66.78;100769.53;5114141;28;20495;-80
2022/08/18 06:22:55;;;;;;;6.78;3.85;;;;;;;20.83;65.12;100778.91;5142255;28;20034;-80
2022/08/18 06:26:03;;;;;;;4.38;3.97;;;;;;;20.78;67.94;100778.38;5152287;28;20042;-80
2022/08/18 06:28:46;;;;;;;3.47;3.17;;;;;;;20.83;66.82;100776.22;5126997;28;20034;-80
2022/08/18 06:31:35;;;;;;;3.53;3.25;;;;;;;20.80;65.76;100783.59;5158128;28;20042;-81
2022/08/18 06:34:30;;;;;;;3.97;2.53;;;;;;;20.84;64.85;100788.63;5128341;28;20037;-79
2022/08/18 06:40:34;;;;;;;4.53;3.95;;;;;;;20.95;64.71;100773.69;5157561;28;20238;-80
2022/08/18 06:43:10;;;;;;;5.28;3.90;;;;;;;20.92;64.31;100786.25;5145037;28;20503;-80
2022/08/18 06:45:47;;;;;;;2.60;2.35;;;;;;;20.92;64.32;100785.44;5141327;28;20039;-80
2022/08/18 06:48:42;;;;;;;5.15;3.35;;;;;;;20.96;63.62;100791.41;5116366;28;20507;-81
2022/08/18 06:51:19;;;;;;;4.38;3.20;;;;;;;20.94;64.87;100786.19;5130107;28;20042;-80
2022/08/18 06:53:57;;;;;;;4.97;3.58;;;;;;;20.98;64.75;100794.81;5125557;28;20022;-81
2022/08/18 06:56:39;;;;;;;4.25;3.15;;;;;;;20.95;65.56;100790.53;5105765;28;20122;-81
2022/08/18 06:59:13;;;;;;;5.38;3.63;;;;;;;20.98;64.56;100795.66;5123790;28;20100;-81
2022/08/18 07:01:46;;;;;;;3.00;2.70;;;;;;;20.98;65.20;100795.66;5155468;28;20042;-80
2022/08/18 07:04:39;;;;;;;5.28;3.60;;;;;;;21.00;64.79;100800.88;5106983;28;21448;-80
2022/08/18 07:07:19;;;;;;;2.90;2.70;;;;;;;21.01;64.42;100800.78;5128450;28;20054;-80
2022/08/18 07:09:50;;;;;;;3.25;1.88;;;;;;;21.03;63.86;100796.19;5139615;28;20043;-81
2022/08/18 07:12:24;;;;;;;3.33;2.22;;;;;;;21.03;64.46;100798.00;5144967;28;20027;-80
2022/08/18 07:15:04;;;;;;;3.30;2.78;;;;;;;21.04;63.44;100800.56;5141403;28;20047;-80
2022/08/18 07:17:42;;;;;;;3.78;3.42;;;;;;;21.09;63.91;100802.06;5130035;28;20565;-80
2022/08/18 07:20:23;;;;;;;3.40;2.40;;;;;;;21.09;63.65;100802.06;5115455;28;20129;-81
2022/08/18 07:23:05;;;;;;;3.67;2.80;;;;;;;21.07;63.25;100800.34;5126104;28;20496;-80
2022/08/18 07:25:45;;;;;;;5.47;1.95;;;;;;;21.10;62.89;100788.59;5149164;28;20046;-80
2022/08/18 07:28:47;;;;;;;4.03;3.40;;;;;;;21.11;62.95;100800.16;5122549;28;20510;-81
2022/08/18 07:31:41;;;;;;;2.85;2.65;;;;;;;21.13;62.59;100793.72;5119726;28;20518;-80
2022/08/18 07:34:11;;;;;;;2.47;2.22;;;;;;;21.14;64.15;100790.09;5079767;28;20860;-81
2022/08/18 07:37:26;;;;;;;2.10;1.65;;;;;;;21.13;63.10;100777.72;5159799;28;20042;-82
2022/08/18 07:40:18;;;;;;;2.63;2.30;;;;;;;21.17;63.75;100784.53;5160002;28;20524;-81
2022/08/18 07:43:19;;;;;;;2.13;1.92;;;;;;;21.23;64.04;100783.25;5128325;28;20039;-80
2022/08/18 07:45:52;;;;;;;2.75;2.55;;;;;;;21.21;62.98;100785.16;5126434;28;20047;-80
2022/08/18 07:48:29;;;;;;;2.42;2.25;;;;;;;21.24;63.78;100784.97;5129436;28;20566;-81
2022/08/18 07:51:24;;;;;;;3.28;2.97;;;;;;;21.33;64.34;100784.31;5124495;28;20665;-81
2022/08/18 07:54:16;;;;;;;5.90;3.33;;;;;;;21.30;63.42;100781.00;5159904;28;20038;-81
2022/08/18 07:57:13;;;;;;;6.22;3.35;;;;;;;21.29;63.43;100780.13;5129487;28;20045;-80
2022/08/18 08:00:12;;;;;;;8.48;4.60;;;;;;;21.24;64.07;100790.28;5147049;28;20610;-80
2022/08/18 08:03:16;;;;;;;2.83;2.40;;;;;;;21.34;63.21;100795.81;5147790;28;20096;-81
2022/08/18 08:06:15;;;;;;;4.72;3.42;;;;;;;21.28;62.80;100785.59;5129993;28;20143;-80
2022/08/18 08:09:18;;;;;;;3.40;3.10;;;;;;;21.22;62.76;100793.09;5127300;28;20026;-80
2022/08/18 08:11:59;;;;;;;3.97;2.95;;;;;;;21.22;62.78;100795.75;5137617;28;20043;-80
2022/08/18 08:14:29;;;;;;;1.95;1.85;;;;;;;21.27;62.71;100805.22;5143611;28;20045;-80
2022/08/18 08:17:16;;;;;;;5.18;2.70;;;;;;;21.27;62.86;100808.78;5127985;28;20783;-80
2022/08/18 08:19:56;;;;;;;2.65;2.45;;;;;;;21.28;63.18;100810.44;5123789;28;20047;-80
2022/08/18 08:22:53;;;;;;;3.60;2.80;;;;;;;21.29;64.44;100814.84;5146190;28;20669;-80
2022/08/18 08:25:44;;;;;;;1.52;1.42;;;;;;;21.34;63.11;100807.38;5140864;28;20054;-81
2022/08/18 08:28:27;;;;;;;1.48;1.38;;;;;;;21.35;62.60;100809.06;5142026;28;20047;-80
2022/08/18 08:31:06;;;;;;;2.72;2.53;;;;;;;21.37;64.45;100811.63;5128381;28;20073;-80
2022/08/18 08:33:46;;;;;;;2.40;2.20;;;;;;;21.41;62.25;100822.94;5130391;28;20043;-81
2022/08/18 08:36:24;;;;;;;6.47;2.65;;;;;;;21.41;63.29;100817.59;5144147;28;20038;-80
2022/08/18 08:39:27;;;;;;;13.75;2.92;;;;;;;21.47;62.27;100828.69;5156400;28;20031;-80
2022/08/18 08:42:21;;;;;;;2.10;2.00;;;;;;;21.46;62.59;100827.00;5109348;28;20027;-80
2022/08/18 08:44:59;;;;;;;2.67;2.15;;;;;;;21.48;62.59;100838.41;5137409;28;20047;-80
2022/08/18 08:47:48;;;;;;;5.70;2.75;;;;;;;21.51;62.29;100840.84;5120649;28;20035;-80
2022/08/18 08:50:25;;;;;;;2.05;1.95;;;;;;;21.52;62.38;100841.72;5122100;28;20051;-80
2022/08/18 08:53:08;;;;;;;0.82;0.82;;;;;;;21.50;62.61;100833.78;5152883;28;20035;-80
2022/08/18 08:55:47;;;;;;;5.63;2.30;;;;;;;21.71;62.11;100830.59;5128331;28;20038;-81
2022/08/18 08:58:21;;;;;;;2.70;2.50;;;;;;;21.70;62.19;100835.06;5137332;28;20055;-80
2022/08/18 09:00:53;;;;;;;3.60;1.88;;;;;;;21.72;61.86;100824.28;5156262;28;20126;-80
2022/08/18 09:03:38;;;;;;;1.73;1.63;;;;;;;21.69;63.17;100828.00;5158798;28;20035;-81
2022/08/18 09:06:29;;;;;;;1.65;1.23;;;;;;;21.74;63.02;100819.66;5160281;28;20050;-80
2022/08/18 09:09:10;;;;;;;1.60;1.48;;;;;;;21.76;63.31;100811.56;5149322;28;20089;-80
2022/08/18 09:12:11;;;;;;;1.05;0.90;;;;;;;21.77;62.77;100815.94;5142521;28;20047;-81
2022/08/18 09:15:03;;;;;;;2.25;1.27;;;;;;;21.80;63.15;100807.69;5156127;28;20027;-80
2022/08/18 09:17:55;;;;;;;1.17;1.08;;;;;;;21.85;62.51;100805.56;5134374;28;20098;-80
2022/08/18 09:20:47;;;;;;;5.82;2.28;;;;;;;21.89;62.86;100799.00;5138058;28;20098;-81
2022/08/18 09:23:35;;;;;;;2.25;2.05;;;;;;;21.98;62.05;100801.00;5126066;28;20675;-80
2022/08/18 09:26:38;;;;;;;0.70;0.70;;;;;;;22.04;62.30;100805.03;5123689;28;20130;-80
2022/08/18 09:29:49;;;;;;;1.38;1.27;;;;;;;22.13;61.12;100803.50;5137635;28;20022;-80
2022/08/18 09:32:24;;;;;;;1.25;1.00;;;;;;;22.04;61.36;100802.38;5130569;28;20092;-81
2022/08/18 09:34:59;;;;;;;0.93;0.93;;;;;;;22.10;61.15;100806.41;5142699;28;20035;-81
2022/08/18 09:37:40;;;;;;;1.15;1.15;;;;;;;22.25;61.11;100807.94;5141953;28;20034;-81
2022/08/18 09:43:32;;;;;;;8.70;2.28;;;;;;;22.27;60.70;100811.31;5163000;28;20044;-81
2022/08/18 09:46:04;;;;;;;;;;;;;;;22.28;60.65;100822.88;5128527;28;20687;-81
2022/08/18 09:48:40;;;;;;;0.47;0.47;;;;;;;22.29;60.70;100809.38;5136443;28;19960;-81
2022/08/18 09:51:22;;;;;;;0.65;0.60;;;;;;;22.31;60.53;100818.16;5142454;28;20050;-81
2022/08/18 09:54:16;;;;;;;1.67;1.23;;;;;;;22.40;60.16;100816.63;5139798;28;20030;-81
2022/08/18 09:56:50;;;;;;;1.10;0.80;;;;;;;22.47;60.05;100815.22;5142280;28;20534;-81
2022/08/18 09:59:33;;;;;;;0.75;0.75;;;;;;;22.53;60.02;100815.69;5144893;28;20045;-81
2022/08/18 10:02:10;;;;;;;0.77;0.77;;;;;;;22.54;59.57;100810.22;5142054;28;20053;-81
2022/08/18 10:04:50;;;;;;;1.30;1.20;;;;;;;22.54;60.01;100812.91;5141427;28;20053;-81
2022/08/18 10:07:42;;;;;;;0.98;0.98;;;;;;;22.61;59.57;100822.16;5124008;28;20036;-81
2022/08/18 10:10:24;;;;;;;1.83;1.48;;;;;;;22.61;59.74;100819.47;5133312;28;20113;-81
2022/08/18 10:13:05;;;;;;;0.50;0.50;;;;;;;22.73;59.33;100809.66;5148994;28;20038;-81
2022/08/18 10:15:58;;;;;;;1.50;0.88;;;;;;;22.80;59.48;100818.06;5111966;28;20463;-81
2022/08/18 10:19:09;;;;;;;1.48;1.35;;;;;;;22.83;59.10;100809.81;5142546;28;20043;-81
2022/08/18 10:21:58;;;;;;;2.95;1.35;;;;;;;;;;5163560;28;20042;-81
2022/08/18 10:24:35;;;;;;;1.00;1.00;;;;;;;22.92;59.02;100805.56;5171141;28;20034;-81
2022/08/18 10:27:29;;;;;;;0.50;0.50;;;;;;;22.99;59.18;100811.28;5148721;28;20050;-80
2022/08/18 10:30:04;;;;;;;2.42;1.77;;;;;;;23.08;58.59;100814.09;5138125;28;20039;-81
2022/08/18 10:32:43;;;;;;;0.60;0.60;;;;;;;23.14;58.31;100815.44;5108945;28;20038;-81
2022/08/18 10:35:32;;;;;;;1.27;1.17;;;;;;;23.12;58.32;100812.03;5127779;28;20854;-81
2022/08/18 10:38:13;;;;;;;0.93;0.93;;;;;;;23.16;58.28;100808.16;5111633;28;20705;-82
2022/08/18 10:41:30;;;;;;;1.75;0.88;;;;;;;23.20;58.05;100806.09;5140183;28;20057;-82
2022/08/18 10:44:02;;;;;;;0.80;0.57;;;;;;;23.25;57.67;100806.59;5121708;28;20031;-81
2022/08/18 10:46:42;;;;;;;1.05;0.95;;;;;;;23.30;57.41;100798.19;5145141;28;20038;-81
2022/08/18 10:49:12;;;;;;;2.83;0.85;;;;;;;23.31;58.01;100802.56;5141416;28;20030;-81
2022/08/18 10:52:29;;;;;;;0.70;0.70;;;;;;;23.39;58.07;100792.09;5129681;28;20022;-83
2022/08/18 10:55:37;;;;;;;0.65;0.65;;;;;;;23.46;57.74;100782.59;5126104;28;20684;-82
2022/08/18 10:58:32;;;;;;;0.95;0.73;;;;;;;23.48;57.71;100785.13;5141927;28;20542;-83
2022/08/18 11:01:33;;;;;;;0.65;0.65;;;;;;;23.56;57.17;100783.56;5147771;28;20046;-83
2022/08/18 11:04:24;;;;;;;0.68;0.68;;;;;;;23.57;57.44;100768.34;5125377;28;20059;-83
2022/08/18 11:07:23;;;;;;;0.47;0.47;;;;;;;23.65;57.75;100760.50;5160279;28;20030;-83
2022/08/18 11:09:56;;;;;;;0.70;0.65;;;;;;;23.66;57.10;100767.59;5116626;28;20105;-83
2022/08/18 11:12:38;;;;;;;12.60;2.05;;;;;;;23.71;56.95;100767.22;5129972;28;20710;-83
2022/08/18 11:15:17;;;;;;;0.50;0.50;;;;;;;23.77;57.12;100764.00;5124608;28;20043;-83
2022/08/18 11:17:47;;;;;;;7.57;1.50;;;;;;;23.93;56.59;100768.09;5130497;28;20038;-80
2022/08/18 11:20:22;;;;;;;2.05;1.30;;;;;;;23.85;56.37;100761.56;5142147;28;20463;-81
2022/08/18 11:22:57;;;;;;;0.40;0.40;;;;;;;23.92;56.83;100767.25;5145460;28;20033;-81
2022/08/18 11:25:30;;;;;;;2.00;1.75;;;;;;;23.96;56.81;100771.44;5145170;28;20057;-80
2022/08/18 11:28:13;;;;;;;1.08;0.70;;;;;;;23.99;56.37;100768.47;5135965;28;20037;-85
2022/08/18 11:30:49;;;;;;;0.32;0.32;;;;;;;24.04;56.61;100765.41;5151668;28;20050;-81
2022/08/18 11:33:21;;;;;;;9.95;2.05;;;;;;;24.11;56.49;100771.13;5143326;28;20042;-82
2022/08/18 11:35:56;;;;;;;0.50;0.50;;;;;;;24.12;55.67;100762.94;5157830;28;20030;-82
2022/08/18 11:38:30;;;;;;;0.22;0.22;;;;;;;24.17;55.82;100746.47;5142885;28;20027;-82
2022/08/18 11:41:15;;;;;;;0.80;0.80;;;;;;;24.16;55.21;100740.28;5162274;28;20026;-82
2022/08/18 11:43:47;;;;;;;0.75;0.55;;;;;;;24.17;55.46;100743.78;5132297;28;20027;-80
2022/08/18 11:46:27;;;;;;;1.00;0.85;;;;;;;24.21;55.54;100753.28;5127638;28;20125;-80
2022/08/18 11:49:17;;;;;;;0.40;0.40;;;;;;;24.23;55.25;100750.47;5142045;28;20022;-81
2022/08/18 11:52:16;;;;;;;0.32;0.32;;;;;;;24.28;55.02;100746.44;5129208;28;20031;-80
2022/08/18 11:54:48;;;;;;;0.85;0.85;;;;;;;24.23;55.05;100745.13;5139706;28;20495;-82
2022/08/18 11:57:30;;;;;;;0.60;0.60;;;;;;;24.29;55.01;100749.94;5143977;28;20039;-79
2022/08/18 12:00:44;;;;;;;0.50;0.50;;;;;;;24.33;54.82;100746.03;5124819;28;20406;-81
2022/08/18 12:03:29;;;;;;;0.93;0.52;;;;;;;24.36;54.74;100748.44;5134789;28;20042;-82
2022/08/18 12:06:18;;;;;;;1.98;1.50;;;;;;;24.32;54.43;100737.13;5136874;28;20043;-82
2022/08/18 12:09:36;;;;;;;0.40;0.40;;;;;;;24.41;54.67;100734.66;5164896;28;20057;-82
2022/08/18 12:12:29;;;;;;;0.82;0.68;;;;;;;24.50;54.37;100739.22;5027346;29;20048;-84
2022/08/18 12:15:18;;;;;;;0.70;0.68;;;;;;;24.50;53.78;100739.22;5142666;28;20042;-82
2022/08/18 12:17:51;;;;;;;0.40;0.40;;;;;;;24.60;53.76;100747.31;5140332;28;20045;-80
2022/08/18 12:20:23;;;;;;;0.28;0.28;;;;;;;24.57;53.68;100750.28;5129956;28;20042;-81
2022/08/18 12:22:55;;;;;;;0.30;0.30;;;;;;;24.63;53.50;100752.41;5130092;28;20295;-81
2022/08/18 12:25:30;;;;;;;0.30;0.30;;;;;;;24.70;53.08;100761.66;5142480;28;20046;-81
2022/08/18 12:28:03;;;;;;;0.68;0.68;;;;;;;24.63;53.14;100757.78;5125921;28;20034;-82
2022/08/18 12:30:34;;;;;;;6.15;0.43;;;;;;;24.71;53.14;100773.28;5129759;28;20207;-82
2022/08/18 12:33:10;;;;;;;0.40;0.40;;;;;;;24.72;52.75;100786.53;5144983;28;20117;-82
2022/08/18 12:35:41;;;;;;;0.50;0.50;;;;;;;24.76;52.85;100798.69;5161113;28;20047;-81
2022/08/18 12:38:12;;;;;;;0.43;0.43;;;;;;;24.85;53.04;100801.56;5118522;28;20026;-82
2022/08/18 12:40:43;;;;;;;3.60;1.23;;;;;;;24.90;52.88;100807.41;5130677;28;20137;-81
2022/08/18 12:43:14;;;;;;;0.50;0.50;;;;;;;24.93;53.21;100813.34;5161654;28;20423;-81
2022/08/18 12:45:45;;;;;;;0.43;0.43;;;;;;;24.99;52.67;100812.81;5127701;28;20101;-81
2022/08/18 12:48:18;;;;;;;0.70;0.63;;;;;;;25.06;52.66;100812.25;5147285;28;20575;-80